Mattapoisett, Massachusetts
Current Conditions -  °F | °C
As of 7:53 AM on Thursday 23 Oct 2014 (Local Time) from KEWB Reporting Station
Overcast Overcast  
Wind Chill: 55°   Ceiling: 800
Heat Index: 55°   Visibility: 10mi
Dew Point: 53°   Wind: 14mph
Humidity: 93%   Direction: 10°N
Pressure: 29.56"   Gusts: 30mph
Location:  41.66°N, 70.82°W
Report Text: KEWB 231153Z 01012G26KT 10SM OVC008 13/12 A2956 RMK AO2 PK WND 03027/1106 SLP008 60002 70096 T01280117 10139 20122 53005
Loading
Personal Weather Stations






























Interactive Weather Map
Tropical Storm Tracking
New forecast layout! Learn more

10-Day Weather Forecast

Advertisements
Track Severe Weather on mobile